sensor_id;sensor_type;location;lat;lon;timestamp;P1;durP1;ratioP1;P2;durP2;ratioP2
57947;SDS011;43754;56.992;24.292;2023-03-14T00:01:00;25.20;;;15.65;;
57947;SDS011;43754;56.992;24.292;2023-03-14T00:03:39;27.30;;;14.97;;
57947;SDS011;43754;56.992;24.292;2023-03-14T00:06:12;24.08;;;15.52;;
57947;SDS011;43754;56.992;24.292;2023-03-14T00:08:46;24.70;;;14.00;;
57947;SDS011;43754;56.992;24.292;2023-03-14T00:11:18;26.55;;;15.93;;
57947;SDS011;43754;56.992;24.292;2023-03-14T00:13:51;25.48;;;13.95;;
57947;SDS011;43754;56.992;24.292;2023-03-14T00:16:24;23.33;;;15.20;;
57947;SDS011;43754;56.992;24.292;2023-03-14T00:18:56;24.17;;;16.35;;
57947;SDS011;43754;56.992;24.292;2023-03-14T00:21:29;27.17;;;15.48;;
57947;SDS011;43754;56.992;24.292;2023-03-14T00:24:03;28.17;;;16.30;;
57947;SDS011;43754;56.992;24.292;2023-03-14T00:26:35;25.20;;;16.80;;
57947;SDS011;43754;56.992;24.292;2023-03-14T00:29:07;28.05;;;17.05;;
57947;SDS011;43754;56.992;24.292;2023-03-14T00:31:39;32.05;;;17.27;;
57947;SDS011;43754;56.992;24.292;2023-03-14T00:34:13;28.83;;;16.98;;
57947;SDS011;43754;56.992;24.292;2023-03-14T00:36:45;25.48;;;15.55;;
57947;SDS011;43754;56.992;24.292;2023-03-14T00:39:18;24.02;;;15.73;;
57947;SDS011;43754;56.992;24.292;2023-03-14T00:41:50;34.25;;;17.92;;
57947;SDS011;43754;56.992;24.292;2023-03-14T00:44:22;24.52;;;15.65;;
57947;SDS011;43754;56.992;24.292;2023-03-14T00:46:54;25.50;;;16.35;;
57947;SDS011;43754;56.992;24.292;2023-03-14T00:49:26;29.15;;;17.08;;
57947;SDS011;43754;56.992;24.292;2023-03-14T00:51:58;24.35;;;16.02;;
57947;SDS011;43754;56.992;24.292;2023-03-14T00:54:32;28.40;;;17.25;;
57947;SDS011;43754;56.992;24.292;2023-03-14T00:57:04;29.50;;;16.20;;
57947;SDS011;43754;56.992;24.292;2023-03-14T00:59:36;37.65;;;18.33;;
57947;SDS011;43754;56.992;24.292;2023-03-14T01:02:08;37.88;;;20.25;;
57947;SDS011;43754;56.992;24.292;2023-03-14T01:04:40;36.30;;;20.15;;
57947;SDS011;43754;56.992;24.292;2023-03-14T01:07:14;36.63;;;20.63;;
57947;SDS011;43754;56.992;24.292;2023-03-14T01:09:49;33.78;;;18.88;;
57947;SDS011;43754;56.992;24.292;2023-03-14T01:12:23;31.95;;;19.02;;
57947;SDS011;43754;56.992;24.292;2023-03-14T01:14:55;38.03;;;21.15;;
57947;SDS011;43754;56.992;24.292;2023-03-14T01:17:28;34.03;;;19.23;;
57947;SDS011;43754;56.992;24.292;2023-03-14T01:20:01;31.88;;;20.83;;
57947;SDS011;43754;56.992;24.292;2023-03-14T01:22:35;33.67;;;19.90;;
57947;SDS011;43754;56.992;24.292;2023-03-14T01:25:10;32.35;;;19.50;;
57947;SDS011;43754;56.992;24.292;2023-03-14T01:27:44;36.53;;;22.98;;
57947;SDS011;43754;56.992;24.292;2023-03-14T01:30:16;40.45;;;23.60;;
57947;SDS011;43754;56.992;24.292;2023-03-14T01:32:48;40.33;;;23.45;;
57947;SDS011;43754;56.992;24.292;2023-03-14T01:35:21;41.63;;;24.17;;
57947;SDS011;43754;56.992;24.292;2023-03-14T01:37:53;50.63;;;26.30;;
57947;SDS011;43754;56.992;24.292;2023-03-14T01:40:28;50.00;;;28.05;;
57947;SDS011;43754;56.992;24.292;2023-03-14T01:43:05;54.80;;;29.00;;
57947;SDS011;43754;56.992;24.292;2023-03-14T01:48:53;50.50;;;29.20;;
57947;SDS011;43754;56.992;24.292;2023-03-14T01:51:37;57.55;;;30.65;;
57947;SDS011;43754;56.992;24.292;2023-03-14T01:54:16;70.57;;;32.60;;
57947;SDS011;43754;56.992;24.292;2023-03-14T01:56:55;59.75;;;32.53;;
57947;SDS011;43754;56.992;24.292;2023-03-14T01:59:30;68.10;;;31.52;;
57947;SDS011;43754;56.992;24.292;2023-03-14T02:02:04;67.00;;;33.78;;
57947;SDS011;43754;56.992;24.292;2023-03-14T02:04:39;60.72;;;31.02;;
57947;SDS011;43754;56.992;24.292;2023-03-14T02:07:14;56.95;;;30.88;;
57947;SDS011;43754;56.992;24.292;2023-03-14T02:10:00;58.25;;;31.25;;
57947;SDS011;43754;56.992;24.292;2023-03-14T02:12:38;62.47;;;32.42;;
57947;SDS011;43754;56.992;24.292;2023-03-14T02:15:18;47.40;;;29.50;;
57947;SDS011;43754;56.992;24.292;2023-03-14T02:17:57;69.18;;;32.00;;
57947;SDS011;43754;56.992;24.292;2023-03-14T02:20:50;62.65;;;33.97;;
57947;SDS011;43754;56.992;24.292;2023-03-14T02:23:31;67.18;;;34.20;;
57947;SDS011;43754;56.992;24.292;2023-03-14T02:26:16;58.45;;;31.35;;
57947;SDS011;43754;56.992;24.292;2023-03-14T02:28:55;58.60;;;31.25;;
57947;SDS011;43754;56.992;24.292;2023-03-14T02:31:28;57.05;;;33.17;;
57947;SDS011;43754;56.992;24.292;2023-03-14T02:34:00;55.00;;;31.52;;
57947;SDS011;43754;56.992;24.292;2023-03-14T02:36:34;59.83;;;32.92;;
57947;SDS011;43754;56.992;24.292;2023-03-14T02:39:07;56.20;;;32.95;;
57947;SDS011;43754;56.992;24.292;2023-03-14T02:41:47;58.20;;;30.75;;
57947;SDS011;43754;56.992;24.292;2023-03-14T02:44:22;57.03;;;32.13;;
57947;SDS011;43754;56.992;24.292;2023-03-14T02:46:54;54.67;;;32.72;;
57947;SDS011;43754;56.992;24.292;2023-03-14T02:49:27;55.75;;;33.63;;
57947;SDS011;43754;56.992;24.292;2023-03-14T02:52:01;49.85;;;30.88;;
57947;SDS011;43754;56.992;24.292;2023-03-14T02:54:34;54.70;;;32.97;;
57947;SDS011;43754;56.992;24.292;2023-03-14T02:57:06;56.00;;;33.28;;
57947;SDS011;43754;56.992;24.292;2023-03-14T02:59:40;54.33;;;30.80;;
57947;SDS011;43754;56.992;24.292;2023-03-14T03:02:17;56.10;;;31.50;;
57947;SDS011;43754;56.992;24.292;2023-03-14T03:04:49;51.03;;;30.48;;
57947;SDS011;43754;56.992;24.292;2023-03-14T03:07:21;54.40;;;30.60;;
57947;SDS011;43754;56.992;24.292;2023-03-14T03:09:53;50.25;;;31.42;;
57947;SDS011;43754;56.992;24.292;2023-03-14T03:12:26;50.30;;;30.13;;
57947;SDS011;43754;56.992;24.292;2023-03-14T03:14:59;58.83;;;32.70;;
57947;SDS011;43754;56.992;24.292;2023-03-14T03:17:31;56.78;;;31.50;;
57947;SDS011;43754;56.992;24.292;2023-03-14T03:20:03;62.67;;;33.58;;
57947;SDS011;43754;56.992;24.292;2023-03-14T03:22:37;57.90;;;33.15;;
57947;SDS011;43754;56.992;24.292;2023-03-14T03:25:09;50.83;;;30.70;;
57947;SDS011;43754;56.992;24.292;2023-03-14T03:27:41;52.45;;;30.73;;
57947;SDS011;43754;56.992;24.292;2023-03-14T03:30:15;55.70;;;32.03;;
57947;SDS011;43754;56.992;24.292;2023-03-14T03:32:47;51.13;;;30.25;;
57947;SDS011;43754;56.992;24.292;2023-03-14T03:35:20;53.42;;;33.83;;
57947;SDS011;43754;56.992;24.292;2023-03-14T03:37:52;49.20;;;31.33;;
57947;SDS011;43754;56.992;24.292;2023-03-14T03:40:25;47.65;;;30.10;;
57947;SDS011;43754;56.992;24.292;2023-03-14T03:42:58;47.15;;;30.70;;
57947;SDS011;43754;56.992;24.292;2023-03-14T03:45:32;53.78;;;30.13;;
57947;SDS011;43754;56.992;24.292;2023-03-14T03:48:04;42.83;;;29.67;;
57947;SDS011;43754;56.992;24.292;2023-03-14T03:50:36;43.63;;;29.30;;
57947;SDS011;43754;56.992;24.292;2023-03-14T03:53:08;42.05;;;28.05;;
57947;SDS011;43754;56.992;24.292;2023-03-14T03:55:41;39.92;;;27.83;;
57947;SDS011;43754;56.992;24.292;2023-03-14T03:58:15;47.28;;;29.40;;
57947;SDS011;43754;56.992;24.292;2023-03-14T04:00:48;51.38;;;29.60;;
57947;SDS011;43754;56.992;24.292;2023-03-14T04:03:20;47.38;;;28.83;;
57947;SDS011;43754;56.992;24.292;2023-03-14T04:06:02;43.08;;;28.65;;
57947;SDS011;43754;56.992;24.292;2023-03-14T04:08:37;40.75;;;27.77;;
57947;SDS011;43754;56.992;24.292;2023-03-14T04:11:14;43.05;;;29.85;;
57947;SDS011;43754;56.992;24.292;2023-03-14T04:14:08;43.33;;;27.45;;
57947;SDS011;43754;56.992;24.292;2023-03-14T04:16:41;52.67;;;32.45;;
57947;SDS011;43754;56.992;24.292;2023-03-14T04:19:18;45.60;;;26.65;;
57947;SDS011;43754;56.992;24.292;2023-03-14T04:21:51;40.72;;;26.38;;
57947;SDS011;43754;56.992;24.292;2023-03-14T04:24:24;41.58;;;25.92;;
57947;SDS011;43754;56.992;24.292;2023-03-14T04:26:58;46.53;;;29.05;;
57947;SDS011;43754;56.992;24.292;2023-03-14T04:29:31;63.05;;;35.90;;
57947;SDS011;43754;56.992;24.292;2023-03-14T04:32:05;45.03;;;27.23;;
57947;SDS011;43754;56.992;24.292;2023-03-14T04:34:37;48.72;;;30.25;;
57947;SDS011;43754;56.992;24.292;2023-03-14T04:37:09;37.78;;;26.70;;
57947;SDS011;43754;56.992;24.292;2023-03-14T04:39:45;71.75;;;37.30;;
57947;SDS011;43754;56.992;24.292;2023-03-14T04:42:27;39.40;;;27.40;;
57947;SDS011;43754;56.992;24.292;2023-03-14T04:45:00;39.58;;;26.92;;
57947;SDS011;43754;56.992;24.292;2023-03-14T04:47:35;39.55;;;27.70;;
57947;SDS011;43754;56.992;24.292;2023-03-14T04:50:08;74.40;;;37.72;;
57947;SDS011;43754;56.992;24.292;2023-03-14T04:52:40;47.10;;;30.55;;
57947;SDS011;43754;56.992;24.292;2023-03-14T04:55:13;35.45;;;25.25;;
57947;SDS011;43754;56.992;24.292;2023-03-14T04:57:45;41.15;;;28.35;;
57947;SDS011;43754;56.992;24.292;2023-03-14T05:00:18;38.83;;;24.55;;
57947;SDS011;43754;56.992;24.292;2023-03-14T05:03:03;37.92;;;24.08;;
57947;SDS011;43754;56.992;24.292;2023-03-14T05:05:51;41.15;;;24.38;;
57947;SDS011;43754;56.992;24.292;2023-03-14T05:08:59;35.88;;;25.33;;
57947;SDS011;43754;56.992;24.292;2023-03-14T05:11:49;52.22;;;31.98;;
57947;SDS011;43754;56.992;24.292;2023-03-14T05:14:34;42.15;;;28.00;;
57947;SDS011;43754;56.992;24.292;2023-03-14T05:20:10;35.10;;;23.75;;
57947;SDS011;43754;56.992;24.292;2023-03-14T05:23:17;39.85;;;26.38;;
57947;SDS011;43754;56.992;24.292;2023-03-14T05:26:10;37.78;;;22.67;;
57947;SDS011;43754;56.992;24.292;2023-03-14T05:28:49;31.13;;;23.08;;
57947;SDS011;43754;56.992;24.292;2023-03-14T05:31:41;34.97;;;24.35;;
57947;SDS011;43754;56.992;24.292;2023-03-14T05:34:40;31.75;;;23.50;;
57947;SDS011;43754;56.992;24.292;2023-03-14T05:37:26;38.78;;;24.13;;
57947;SDS011;43754;56.992;24.292;2023-03-14T05:40:20;35.42;;;23.45;;
57947;SDS011;43754;56.992;24.292;2023-03-14T05:43:03;30.52;;;23.05;;
57947;SDS011;43754;56.992;24.292;2023-03-14T05:45:42;32.17;;;23.30;;
57947;SDS011;43754;56.992;24.292;2023-03-14T05:48:27;32.83;;;24.52;;
57947;SDS011;43754;56.992;24.292;2023-03-14T05:51:15;31.67;;;22.60;;
57947;SDS011;43754;56.992;24.292;2023-03-14T05:54:22;37.63;;;26.00;;
57947;SDS011;43754;56.992;24.292;2023-03-14T05:56:59;33.55;;;23.80;;
57947;SDS011;43754;56.992;24.292;2023-03-14T06:00:01;33.72;;;22.55;;
57947;SDS011;43754;56.992;24.292;2023-03-14T06:02:55;34.47;;;22.23;;
57947;SDS011;43754;56.992;24.292;2023-03-14T06:05:33;30.52;;;24.75;;
57947;SDS011;43754;56.992;24.292;2023-03-14T06:08:06;31.77;;;21.58;;
57947;SDS011;43754;56.992;24.292;2023-03-14T06:10:39;32.72;;;21.15;;
57947;SDS011;43754;56.992;24.292;2023-03-14T06:13:11;33.20;;;21.63;;
57947;SDS011;43754;56.992;24.292;2023-03-14T06:15:43;31.35;;;22.10;;
57947;SDS011;43754;56.992;24.292;2023-03-14T06:18:16;38.88;;;23.92;;
57947;SDS011;43754;56.992;24.292;2023-03-14T06:20:48;33.53;;;22.05;;
57947;SDS011;43754;56.992;24.292;2023-03-14T06:23:28;34.90;;;25.37;;
57947;SDS011;43754;56.992;24.292;2023-03-14T06:26:05;30.20;;;22.58;;
57947;SDS011;43754;56.992;24.292;2023-03-14T06:28:37;32.10;;;20.60;;
57947;SDS011;43754;56.992;24.292;2023-03-14T06:31:09;29.27;;;21.35;;
57947;SDS011;43754;56.992;24.292;2023-03-14T06:33:52;29.73;;;21.45;;
57947;SDS011;43754;56.992;24.292;2023-03-14T06:36:25;33.70;;;26.08;;
57947;SDS011;43754;56.992;24.292;2023-03-14T06:38:57;36.63;;;25.00;;
57947;SDS011;43754;56.992;24.292;2023-03-14T06:41:32;25.92;;;18.35;;
57947;SDS011;43754;56.992;24.292;2023-03-14T06:44:05;30.60;;;21.20;;
57947;SDS011;43754;56.992;24.292;2023-03-14T06:46:37;30.90;;;18.40;;
57947;SDS011;43754;56.992;24.292;2023-03-14T06:49:09;27.88;;;19.23;;
57947;SDS011;43754;56.992;24.292;2023-03-14T06:51:41;26.05;;;18.38;;
57947;SDS011;43754;56.992;24.292;2023-03-14T06:54:15;24.60;;;16.98;;
57947;SDS011;43754;56.992;24.292;2023-03-14T06:56:48;28.38;;;17.92;;
57947;SDS011;43754;56.992;24.292;2023-03-14T06:59:20;29.40;;;19.08;;
57947;SDS011;43754;56.992;24.292;2023-03-14T07:01:53;24.83;;;17.17;;
57947;SDS011;43754;56.992;24.292;2023-03-14T07:04:25;27.00;;;18.73;;
57947;SDS011;43754;56.992;24.292;2023-03-14T07:06:57;30.52;;;17.85;;
57947;SDS011;43754;56.992;24.292;2023-03-14T07:09:29;22.45;;;15.65;;
57947;SDS011;43754;56.992;24.292;2023-03-14T07:12:05;26.48;;;16.65;;
57947;SDS011;43754;56.992;24.292;2023-03-14T07:14:38;26.05;;;16.02;;
57947;SDS011;43754;56.992;24.292;2023-03-14T07:17:10;27.35;;;18.52;;
57947;SDS011;43754;56.992;24.292;2023-03-14T07:19:42;26.80;;;17.48;;
57947;SDS011;43754;56.992;24.292;2023-03-14T07:22:14;19.05;;;14.80;;
57947;SDS011;43754;56.992;24.292;2023-03-14T07:24:46;27.85;;;17.88;;
57947;SDS011;43754;56.992;24.292;2023-03-14T07:27:20;24.40;;;16.20;;
57947;SDS011;43754;56.992;24.292;2023-03-14T07:29:53;24.17;;;17.63;;
57947;SDS011;43754;56.992;24.292;2023-03-14T07:32:25;24.65;;;17.10;;
57947;SDS011;43754;56.992;24.292;2023-03-14T07:34:57;23.83;;;16.98;;
57947;SDS011;43754;56.992;24.292;2023-03-14T07:37:29;21.77;;;15.82;;
57947;SDS011;43754;56.992;24.292;2023-03-14T07:40:02;24.85;;;17.52;;
57947;SDS011;43754;56.992;24.292;2023-03-14T07:42:41;23.25;;;15.90;;
57947;SDS011;43754;56.992;24.292;2023-03-14T07:45:30;31.90;;;18.30;;
57947;SDS011;43754;56.992;24.292;2023-03-14T07:48:02;37.70;;;19.27;;
57947;SDS011;43754;56.992;24.292;2023-03-14T07:50:34;34.42;;;17.80;;
57947;SDS011;43754;56.992;24.292;2023-03-14T07:53:06;37.42;;;20.75;;
57947;SDS011;43754;56.992;24.292;2023-03-14T07:55:39;29.20;;;17.67;;
57947;SDS011;43754;56.992;24.292;2023-03-14T07:58:13;23.67;;;15.95;;
57947;SDS011;43754;56.992;24.292;2023-03-14T08:00:45;26.58;;;16.20;;
57947;SDS011;43754;56.992;24.292;2023-03-14T08:03:17;22.90;;;14.73;;
57947;SDS011;43754;56.992;24.292;2023-03-14T08:05:49;25.40;;;15.98;;
57947;SDS011;43754;56.992;24.292;2023-03-14T08:08:22;19.58;;;14.52;;
57947;SDS011;43754;56.992;24.292;2023-03-14T08:10:54;24.05;;;17.08;;
57947;SDS011;43754;56.992;24.292;2023-03-14T08:13:27;20.50;;;14.45;;
57947;SDS011;43754;56.992;24.292;2023-03-14T08:15:59;22.80;;;14.75;;
57947;SDS011;43754;56.992;24.292;2023-03-14T08:18:32;19.83;;;15.85;;
57947;SDS011;43754;56.992;24.292;2023-03-14T08:21:04;23.95;;;15.60;;
57947;SDS011;43754;56.992;24.292;2023-03-14T08:23:36;23.02;;;14.27;;
57947;SDS011;43754;56.992;24.292;2023-03-14T08:26:08;23.70;;;14.40;;
57947;SDS011;43754;56.992;24.292;2023-03-14T08:28:42;24.65;;;16.17;;
57947;SDS011;43754;56.992;24.292;2023-03-14T08:31:14;21.80;;;14.70;;
57947;SDS011;43754;56.992;24.292;2023-03-14T08:33:47;21.42;;;14.40;;
57947;SDS011;43754;56.992;24.292;2023-03-14T08:36:19;19.83;;;13.30;;
57947;SDS011;43754;56.992;24.292;2023-03-14T08:38:54;21.63;;;15.15;;
57947;SDS011;43754;56.992;24.292;2023-03-14T08:41:26;19.90;;;14.05;;
57947;SDS011;43754;56.992;24.292;2023-03-14T08:44:00;24.20;;;15.65;;
57947;SDS011;43754;56.992;24.292;2023-03-14T08:46:32;21.95;;;13.68;;
57947;SDS011;43754;56.992;24.292;2023-03-14T08:49:04;19.27;;;13.75;;
57947;SDS011;43754;56.992;24.292;2023-03-14T08:51:36;18.98;;;12.30;;
57947;SDS011;43754;56.992;24.292;2023-03-14T08:54:09;22.95;;;14.70;;
57947;SDS011;43754;56.992;24.292;2023-03-14T08:56:42;17.00;;;12.10;;
57947;SDS011;43754;56.992;24.292;2023-03-14T08:59:15;17.42;;;12.20;;
57947;SDS011;43754;56.992;24.292;2023-03-14T09:01:47;14.73;;;10.30;;
57947;SDS011;43754;56.992;24.292;2023-03-14T09:04:19;17.50;;;12.25;;
57947;SDS011;43754;56.992;24.292;2023-03-14T09:06:52;15.00;;;10.40;;
57947;SDS011;43754;56.992;24.292;2023-03-14T09:09:24;19.15;;;12.00;;
57947;SDS011;43754;56.992;24.292;2023-03-14T09:11:58;20.33;;;12.43;;
57947;SDS011;43754;56.992;24.292;2023-03-14T09:14:32;21.13;;;11.98;;
57947;SDS011;43754;56.992;24.292;2023-03-14T09:17:04;16.45;;;12.98;;
57947;SDS011;43754;56.992;24.292;2023-03-14T09:19:36;19.17;;;12.55;;
57947;SDS011;43754;56.992;24.292;2023-03-14T09:22:08;18.98;;;11.43;;
57947;SDS011;43754;56.992;24.292;2023-03-14T09:24:40;16.55;;;11.02;;
57947;SDS011;43754;56.992;24.292;2023-03-14T09:27:12;16.27;;;10.52;;
57947;SDS011;43754;56.992;24.292;2023-03-14T09:29:45;22.33;;;11.95;;
57947;SDS011;43754;56.992;24.292;2023-03-14T09:32:17;16.27;;;10.95;;
57947;SDS011;43754;56.992;24.292;2023-03-14T09:34:49;20.40;;;12.23;;
57947;SDS011;43754;56.992;24.292;2023-03-14T09:37:21;20.27;;;10.68;;
57947;SDS011;43754;56.992;24.292;2023-03-14T09:39:53;14.63;;;9.85;;
57947;SDS011;43754;56.992;24.292;2023-03-14T09:42:26;14.45;;;10.43;;
57947;SDS011;43754;56.992;24.292;2023-03-14T09:45:02;15.02;;;10.18;;
57947;SDS011;43754;56.992;24.292;2023-03-14T09:47:39;14.35;;;9.90;;
57947;SDS011;43754;56.992;24.292;2023-03-14T09:50:30;15.95;;;10.40;;
57947;SDS011;43754;56.992;24.292;2023-03-14T09:53:09;14.07;;;11.18;;
57947;SDS011;43754;56.992;24.292;2023-03-14T09:55:46;14.40;;;9.85;;
57947;SDS011;43754;56.992;24.292;2023-03-14T09:58:21;11.18;;;8.05;;
57947;SDS011;43754;56.992;24.292;2023-03-14T10:00:56;17.95;;;10.07;;
57947;SDS011;43754;56.992;24.292;2023-03-14T10:03:34;11.98;;;8.82;;
57947;SDS011;43754;56.992;24.292;2023-03-14T10:06:09;18.52;;;10.30;;
57947;SDS011;43754;56.992;24.292;2023-03-14T10:08:43;14.57;;;8.68;;
57947;SDS011;43754;56.992;24.292;2023-03-14T10:11:16;16.27;;;9.65;;
57947;SDS011;43754;56.992;24.292;2023-03-14T10:14:02;15.55;;;8.32;;
57947;SDS011;43754;56.992;24.292;2023-03-14T10:16:40;20.08;;;11.80;;
57947;SDS011;43754;56.992;24.292;2023-03-14T10:19:14;18.00;;;10.63;;
57947;SDS011;43754;56.992;24.292;2023-03-14T10:21:50;16.88;;;10.52;;
57947;SDS011;43754;56.992;24.292;2023-03-14T10:24:26;19.10;;;10.90;;
57947;SDS011;43754;56.992;24.292;2023-03-14T10:27:01;18.67;;;11.50;;
57947;SDS011;43754;56.992;24.292;2023-03-14T10:29:51;20.00;;;11.52;;
57947;SDS011;43754;56.992;24.292;2023-03-14T10:32:29;12.68;;;9.50;;
57947;SDS011;43754;56.992;24.292;2023-03-14T10:35:07;16.08;;;10.10;;
57947;SDS011;43754;56.992;24.292;2023-03-14T10:37:51;13.32;;;8.30;;
57947;SDS011;43754;56.992;24.292;2023-03-14T10:40:27;18.95;;;9.35;;
57947;SDS011;43754;56.992;24.292;2023-03-14T10:43:03;14.65;;;9.70;;
57947;SDS011;43754;56.992;24.292;2023-03-14T10:45:37;15.85;;;8.73;;
57947;SDS011;43754;56.992;24.292;2023-03-14T10:48:19;35.00;;;15.30;;
57947;SDS011;43754;56.992;24.292;2023-03-14T10:50:54;24.20;;;9.35;;
57947;SDS011;43754;56.992;24.292;2023-03-14T10:53:29;13.13;;;8.25;;
57947;SDS011;43754;56.992;24.292;2023-03-14T10:56:05;13.27;;;8.02;;
57947;SDS011;43754;56.992;24.292;2023-03-14T10:58:38;12.30;;;7.53;;
57947;SDS011;43754;56.992;24.292;2023-03-14T11:01:16;14.65;;;8.75;;
57947;SDS011;43754;56.992;24.292;2023-03-14T11:03:59;15.52;;;9.77;;
57947;SDS011;43754;56.992;24.292;2023-03-14T11:06:39;21.70;;;12.75;;
57947;SDS011;43754;56.992;24.292;2023-03-14T11:09:17;16.88;;;9.43;;
57947;SDS011;43754;56.992;24.292;2023-03-14T11:11:56;13.93;;;8.60;;
57947;SDS011;43754;56.992;24.292;2023-03-14T11:14:38;13.13;;;8.98;;
57947;SDS011;43754;56.992;24.292;2023-03-14T11:17:15;11.23;;;7.78;;
57947;SDS011;43754;56.992;24.292;2023-03-14T11:20:03;11.45;;;7.88;;
57947;SDS011;43754;56.992;24.292;2023-03-14T11:22:47;16.63;;;7.93;;
57947;SDS011;43754;56.992;24.292;2023-03-14T11:25:26;10.43;;;6.72;;
57947;SDS011;43754;56.992;24.292;2023-03-14T11:28:06;10.68;;;6.68;;
57947;SDS011;43754;56.992;24.292;2023-03-14T11:30:50;14.13;;;7.85;;
57947;SDS011;43754;56.992;24.292;2023-03-14T11:33:24;13.40;;;8.05;;
57947;SDS011;43754;56.992;24.292;2023-03-14T11:36:06;10.65;;;6.97;;
57947;SDS011;43754;56.992;24.292;2023-03-14T11:38:41;16.25;;;6.60;;
57947;SDS011;43754;56.992;24.292;2023-03-14T11:41:19;13.63;;;8.18;;
57947;SDS011;43754;56.992;24.292;2023-03-14T11:43:54;10.20;;;6.90;;
57947;SDS011;43754;56.992;24.292;2023-03-14T11:46:29;12.13;;;7.35;;
57947;SDS011;43754;56.992;24.292;2023-03-14T11:49:07;13.00;;;7.28;;
57947;SDS011;43754;56.992;24.292;2023-03-14T11:51:50;15.75;;;7.82;;
57947;SDS011;43754;56.992;24.292;2023-03-14T11:54:28;10.60;;;7.15;;
57947;SDS011;43754;56.992;24.292;2023-03-14T11:57:10;13.00;;;7.63;;
57947;SDS011;43754;56.992;24.292;2023-03-14T11:59:47;12.73;;;7.90;;
57947;SDS011;43754;56.992;24.292;2023-03-14T12:02:25;13.45;;;8.07;;
57947;SDS011;43754;56.992;24.292;2023-03-14T12:05:20;11.30;;;7.65;;
57947;SDS011;43754;56.992;24.292;2023-03-14T12:11:10;12.25;;;8.05;;
57947;SDS011;43754;56.992;24.292;2023-03-14T12:13:46;12.15;;;7.75;;
57947;SDS011;43754;56.992;24.292;2023-03-14T12:16:26;13.15;;;6.90;;
57947;SDS011;43754;56.992;24.292;2023-03-14T12:19:24;11.02;;;7.63;;
57947;SDS011;43754;56.992;24.292;2023-03-14T12:25:12;13.63;;;7.38;;
57947;SDS011;43754;56.992;24.292;2023-03-14T12:28:02;13.80;;;7.65;;
57947;SDS011;43754;56.992;24.292;2023-03-14T12:30:37;12.15;;;7.55;;
57947;SDS011;43754;56.992;24.292;2023-03-14T12:36:03;16.45;;;8.48;;
57947;SDS011;43754;56.992;24.292;2023-03-14T12:39:05;14.25;;;7.93;;
57947;SDS011;43754;56.992;24.292;2023-03-14T12:41:44;10.52;;;7.80;;
57947;SDS011;43754;56.992;24.292;2023-03-14T12:47:51;13.50;;;8.30;;
57947;SDS011;43754;56.992;24.292;2023-03-14T12:50:42;12.32;;;8.60;;
57947;SDS011;43754;56.992;24.292;2023-03-14T12:53:22;12.32;;;8.00;;
57947;SDS011;43754;56.992;24.292;2023-03-14T12:56:36;12.07;;;7.65;;
57947;SDS011;43754;56.992;24.292;2023-03-14T12:59:32;12.98;;;7.78;;
57947;SDS011;43754;56.992;24.292;2023-03-14T13:02:21;15.18;;;9.13;;
57947;SDS011;43754;56.992;24.292;2023-03-14T13:05:03;13.15;;;8.05;;
57947;SDS011;43754;56.992;24.292;2023-03-14T13:10:41;13.38;;;8.73;;
57947;SDS011;43754;56.992;24.292;2023-03-14T13:13:19;14.52;;;9.38;;
57947;SDS011;43754;56.992;24.292;2023-03-14T13:15:54;12.35;;;8.15;;
57947;SDS011;43754;56.992;24.292;2023-03-14T13:18:33;14.25;;;9.93;;
57947;SDS011;43754;56.992;24.292;2023-03-14T13:21:09;14.00;;;9.35;;
57947;SDS011;43754;56.992;24.292;2023-03-14T13:23:55;16.85;;;9.93;;
57947;SDS011;43754;56.992;24.292;2023-03-14T13:26:32;13.98;;;10.10;;
57947;SDS011;43754;56.992;24.292;2023-03-14T13:29:14;14.32;;;9.23;;
57947;SDS011;43754;56.992;24.292;2023-03-14T13:31:48;17.17;;;9.27;;
57947;SDS011;43754;56.992;24.292;2023-03-14T13:34:24;17.70;;;10.48;;
57947;SDS011;43754;56.992;24.292;2023-03-14T13:36:58;18.38;;;11.18;;
57947;SDS011;43754;56.992;24.292;2023-03-14T13:39:30;17.30;;;9.90;;
57947;SDS011;43754;56.992;24.292;2023-03-14T13:42:04;16.17;;;10.52;;
57947;SDS011;43754;56.992;24.292;2023-03-14T13:44:37;15.90;;;10.65;;
57947;SDS011;43754;56.992;24.292;2023-03-14T13:47:11;17.23;;;11.18;;
57947;SDS011;43754;56.992;24.292;2023-03-14T13:49:48;17.10;;;11.85;;
57947;SDS011;43754;56.992;24.292;2023-03-14T13:52:25;16.20;;;10.02;;
57947;SDS011;43754;56.992;24.292;2023-03-14T13:55:00;14.20;;;9.30;;
57947;SDS011;43754;56.992;24.292;2023-03-14T13:57:44;19.02;;;11.50;;
57947;SDS011;43754;56.992;24.292;2023-03-14T14:00:19;18.00;;;10.50;;
57947;SDS011;43754;56.992;24.292;2023-03-14T14:02:53;18.02;;;11.13;;
57947;SDS011;43754;56.992;24.292;2023-03-14T14:05:28;16.88;;;10.63;;
57947;SDS011;43754;56.992;24.292;2023-03-14T14:08:02;20.33;;;11.00;;
57947;SDS011;43754;56.992;24.292;2023-03-14T14:10:36;14.55;;;10.52;;
57947;SDS011;43754;56.992;24.292;2023-03-14T14:13:10;16.90;;;10.25;;
57947;SDS011;43754;56.992;24.292;2023-03-14T14:15:47;19.77;;;10.82;;
57947;SDS011;43754;56.992;24.292;2023-03-14T14:18:23;16.40;;;9.90;;
57947;SDS011;43754;56.992;24.292;2023-03-14T14:20:59;16.65;;;10.25;;
57947;SDS011;43754;56.992;24.292;2023-03-14T14:23:32;15.88;;;10.77;;
57947;SDS011;43754;56.992;24.292;2023-03-14T14:26:05;23.08;;;12.90;;
57947;SDS011;43754;56.992;24.292;2023-03-14T14:28:39;31.77;;;18.90;;
57947;SDS011;43754;56.992;24.292;2023-03-14T14:31:19;20.15;;;13.77;;
57947;SDS011;43754;56.992;24.292;2023-03-14T14:36:29;17.27;;;12.45;;
57947;SDS011;43754;56.992;24.292;2023-03-14T14:39:03;20.35;;;13.98;;
57947;SDS011;43754;56.992;24.292;2023-03-14T14:41:39;19.60;;;12.90;;
57947;SDS011;43754;56.992;24.292;2023-03-14T14:44:13;18.90;;;12.30;;
57947;SDS011;43754;56.992;24.292;2023-03-14T14:46:50;20.85;;;14.55;;
57947;SDS011;43754;56.992;24.292;2023-03-14T14:49:22;16.67;;;12.30;;
57947;SDS011;43754;56.992;24.292;2023-03-14T14:52:03;21.17;;;14.30;;
57947;SDS011;43754;56.992;24.292;2023-03-14T14:54:38;20.50;;;14.55;;
57947;SDS011;43754;56.992;24.292;2023-03-14T14:57:17;19.90;;;12.80;;
57947;SDS011;43754;56.992;24.292;2023-03-14T14:59:50;22.92;;;14.45;;
57947;SDS011;43754;56.992;24.292;2023-03-14T15:02:27;27.60;;;14.98;;
57947;SDS011;43754;56.992;24.292;2023-03-14T15:05:02;22.00;;;14.43;;
57947;SDS011;43754;56.992;24.292;2023-03-14T15:07:35;24.88;;;14.77;;
57947;SDS011;43754;56.992;24.292;2023-03-14T15:10:09;25.52;;;15.52;;
57947;SDS011;43754;56.992;24.292;2023-03-14T15:12:42;20.52;;;13.20;;
57947;SDS011;43754;56.992;24.292;2023-03-14T15:15:14;25.20;;;15.73;;
57947;SDS011;43754;56.992;24.292;2023-03-14T15:17:47;21.92;;;15.43;;
57947;SDS011;43754;56.992;24.292;2023-03-14T15:20:19;22.92;;;15.13;;
57947;SDS011;43754;56.992;24.292;2023-03-14T15:22:56;21.98;;;15.18;;
57947;SDS011;43754;56.992;24.292;2023-03-14T15:25:28;19.77;;;14.27;;
57947;SDS011;43754;56.992;24.292;2023-03-14T15:28:20;25.05;;;17.20;;